createdAt,value
2022-09-01T00:00:21.708Z,0.50
2022-09-01T00:02:50.893Z,0.50
2022-09-01T00:05:19.178Z,0.60
2022-09-01T00:07:48.643Z,0.50
2022-09-01T00:10:16.925Z,0.50
2022-09-01T00:12:45.498Z,0.50
2022-09-01T00:15:13.814Z,0.50
2022-09-01T00:17:41.980Z,0.60
2022-09-01T00:20:10.721Z,0.40
2022-09-01T00:22:38.655Z,0.50
2022-09-01T00:25:09.258Z,0.50
2022-09-01T00:27:37.359Z,0.93
2022-09-01T00:30:06.958Z,0.50
2022-09-01T00:32:35.362Z,0.50
2022-09-01T00:35:03.812Z,0.50
2022-09-01T00:37:31.985Z,0.70
2022-09-01T00:39:59.913Z,0.50
2022-09-01T00:42:28.103Z,0.50
2022-09-01T00:44:55.889Z,0.50
2022-09-01T00:47:23.755Z,0.50
2022-09-01T00:49:53.481Z,0.60
2022-09-01T00:52:33.598Z,1.27
2022-09-01T00:55:09.307Z,0.80
2022-09-01T00:57:37.730Z,1.40
2022-09-01T01:00:14.851Z,2.77
2022-09-01T01:02:44.896Z,0.97
2022-09-01T01:05:15.555Z,0.60
2022-09-01T01:07:47.515Z,1.63
2022-09-01T01:10:18.748Z,0.40
2022-09-01T01:12:47.143Z,2.07
2022-09-01T01:15:17.215Z,1.13
2022-09-01T01:17:45.203Z,1.87
2022-09-01T01:20:35.690Z,2.50
2022-09-01T01:23:27.258Z,2.57
2022-09-01T01:25:58.231Z,1.57
2022-09-01T01:28:33.821Z,2.10
2022-09-01T01:31:12.656Z,3.33
2022-09-01T01:33:44.609Z,0.60
2022-09-01T01:36:36.302Z,1.07
2022-09-01T01:39:14.759Z,0.50
2022-09-01T01:41:48.800Z,0.97
2022-09-01T01:44:21.402Z,0.60
2022-09-01T01:46:52.115Z,2.67
2022-09-01T01:49:29.046Z,2.00
2022-09-01T01:51:58.118Z,5.00
2022-09-01T01:54:32.497Z,1.00
2022-09-01T01:57:04.439Z,3.63
2022-09-01T01:59:33.393Z,0.77
2022-09-01T02:02:03.736Z,2.83
2022-09-01T02:04:34.536Z,1.13
2022-09-01T02:07:12.660Z,1.30
2022-09-01T02:09:44.173Z,1.20
2022-09-01T02:12:12.195Z,2.40
2022-09-01T02:14:45.502Z,0.97
2022-09-01T02:17:13.498Z,7.03
2022-09-01T02:19:43.206Z,1.70
2022-09-01T02:22:11.679Z,1.30
2022-09-01T02:24:46.508Z,1.20
2022-09-01T02:27:15.742Z,0.40
2022-09-01T02:29:43.844Z,0.57
2022-09-01T02:32:11.798Z,1.30
2022-09-01T02:34:40.212Z,0.40
2022-09-01T02:37:08.208Z,1.13
2022-09-01T02:39:35.974Z,0.90
2022-09-01T02:42:04.803Z,0.60
2022-09-01T02:44:36.234Z,0.80
2022-09-01T02:47:09.818Z,3.20
2022-09-01T02:49:38.986Z,2.17
2022-09-01T02:52:07.863Z,1.43
2022-09-01T02:54:36.290Z,1.60
2022-09-01T02:57:09.059Z,0.50
2022-09-01T02:59:41.835Z,1.53
2022-09-01T03:02:11.926Z,3.30
2022-09-01T03:04:39.882Z,0.60
2022-09-01T03:07:08.751Z,0.90
2022-09-01T03:09:36.882Z,0.50
2022-09-01T03:12:07.132Z,0.80
2022-09-01T03:14:42.597Z,0.77
2022-09-01T03:17:11.202Z,1.93
2022-09-01T03:19:45.189Z,0.60
2022-09-01T03:22:13.313Z,1.13
2022-09-01T03:24:41.429Z,1.00
2022-09-01T03:27:11.749Z,1.17
2022-09-01T03:29:39.850Z,1.07
2022-09-01T03:32:09.363Z,1.37
2022-09-01T03:34:38.690Z,0.80
2022-09-01T03:37:08.092Z,0.40
2022-09-01T03:39:36.688Z,0.73
2022-09-01T03:42:05.240Z,1.87
2022-09-01T03:44:35.328Z,0.50
2022-09-01T03:47:03.675Z,0.50
2022-09-01T03:49:32.851Z,0.50
2022-09-01T03:52:02.555Z,0.97
2022-09-01T03:54:32.989Z,0.40
2022-09-01T03:57:02.257Z,2.00
2022-09-01T03:59:31.681Z,0.60
2022-09-01T04:02:00.523Z,0.50
2022-09-01T04:04:32.940Z,0.70
2022-09-01T04:07:01.432Z,0.90
2022-09-01T04:09:35.134Z,1.03
2022-09-01T04:12:11.330Z,0.50
2022-09-01T04:14:40.808Z,0.50
2022-09-01T04:17:30.480Z,0.70
2022-09-01T04:19:59.438Z,1.23
2022-09-01T04:22:30.137Z,1.70
2022-09-01T04:24:59.895Z,0.60
2022-09-01T04:27:29.406Z,1.63
2022-09-01T04:29:58.081Z,1.23
2022-09-01T04:32:28.797Z,2.60
2022-09-01T04:35:01.589Z,0.80
2022-09-01T04:37:30.995Z,0.50
2022-09-01T04:40:02.652Z,0.50
2022-09-01T04:42:32.599Z,0.83
2022-09-01T04:45:10.449Z,0.50
2022-09-01T04:47:45.519Z,1.80
2022-09-01T04:50:18.487Z,0.60
2022-09-01T04:53:06.153Z,1.80
2022-09-01T04:55:44.180Z,0.40
2022-09-01T04:58:17.889Z,2.40
2022-09-01T05:00:49.517Z,1.37
2022-09-01T05:03:23.436Z,1.00
2022-09-01T05:06:20.626Z,0.80
2022-09-01T05:08:53.510Z,2.03
2022-09-01T05:11:39.899Z,0.40
2022-09-01T05:14:21.472Z,0.50
2022-09-01T05:16:51.197Z,0.80
2022-09-01T05:19:20.889Z,0.50
2022-09-01T05:21:50.579Z,0.50
2022-09-01T05:24:21.661Z,0.50
2022-09-01T05:26:50.851Z,0.73
2022-09-01T05:29:21.226Z,0.40
2022-09-01T05:31:52.649Z,0.60
2022-09-01T05:34:29.755Z,0.50
2022-09-01T05:36:59.536Z,1.50
2022-09-01T05:39:28.616Z,0.70
2022-09-01T05:41:58.473Z,1.37
2022-09-01T05:44:26.350Z,0.70
2022-09-01T05:47:00.067Z,0.50
2022-09-01T05:49:33.168Z,0.50
2022-09-01T05:52:03.382Z,0.90
2022-09-01T05:54:32.585Z,0.80
2022-09-01T05:57:23.518Z,0.50
2022-09-01T05:59:53.914Z,1.53
2022-09-01T06:02:26.224Z,0.60
2022-09-01T06:04:56.930Z,0.80
2022-09-01T06:07:29.706Z,3.53
2022-09-01T06:10:00.552Z,1.00
2022-09-01T06:12:29.100Z,1.33
2022-09-01T06:14:56.871Z,3.87
2022-09-01T06:17:28.320Z,2.93
2022-09-01T06:19:59.419Z,1.20
2022-09-01T06:22:28.933Z,3.20
2022-09-01T06:25:02.230Z,2.00
2022-09-01T06:27:38.974Z,4.33
2022-09-01T06:30:14.908Z,4.00
2022-09-01T06:32:49.852Z,3.27
2022-09-01T06:35:18.106Z,1.50
2022-09-01T06:37:48.508Z,1.30
2022-09-01T06:40:34.061Z,2.33
2022-09-01T06:43:07.858Z,2.90
2022-09-01T06:45:43.709Z,2.70
2022-09-01T06:48:16.492Z,1.80
2022-09-01T06:53:35.744Z,3.30
2022-09-01T06:56:06.890Z,2.53
2022-09-01T06:58:34.934Z,1.30
2022-09-01T07:01:08.062Z,3.20
2022-09-01T07:03:35.427Z,3.93
2022-09-01T07:09:44.521Z,1.60
2022-09-01T07:12:26.003Z,2.00
2022-09-01T07:17:50.138Z,3.20
2022-09-01T07:20:24.631Z,2.70
2022-09-01T07:23:10.005Z,3.27
2022-09-01T07:26:00.457Z,5.63
2022-09-01T07:28:36.789Z,1.70
2022-09-01T07:34:37.663Z,5.13
2022-09-01T07:39:49.905Z,4.10
2022-09-01T07:45:28.657Z,3.50
2022-09-01T07:48:03.497Z,3.07
2022-09-01T07:51:34.197Z,4.17
2022-09-01T07:53:33.571Z,4.73
2022-09-01T07:56:09.484Z,2.70
2022-09-01T07:58:43.069Z,2.60
2022-09-01T08:01:14.949Z,3.57
2022-09-01T08:03:42.962Z,3.70
2022-09-01T08:06:14.176Z,3.40
2022-09-01T08:08:42.277Z,2.03
2022-09-01T08:11:09.474Z,2.80
2022-09-01T08:13:41.670Z,2.33
2022-09-01T08:16:18.046Z,2.60
2022-09-01T08:18:49.153Z,3.00
2022-09-01T08:21:35.278Z,2.63
2022-09-01T08:24:04.893Z,3.10
2022-09-01T08:26:34.469Z,3.47
2022-09-01T08:29:04.478Z,4.27
2022-09-01T08:31:36.520Z,2.70
2022-09-01T08:34:05.635Z,3.20
2022-09-01T08:36:33.699Z,2.07
2022-09-01T08:39:02.934Z,4.00
2022-09-01T08:41:37.411Z,2.73
2022-09-01T08:44:39.203Z,2.93
2022-09-01T08:47:15.342Z,2.40
2022-09-01T08:49:47.424Z,3.20
2022-09-01T08:52:47.395Z,2.60
2022-09-01T08:55:22.229Z,2.60
2022-09-01T08:57:59.143Z,2.33
2022-09-01T09:00:30.462Z,3.77
2022-09-01T09:03:40.516Z,2.70
2022-09-01T09:06:13.085Z,4.10
2022-09-01T09:09:01.110Z,2.73
2022-09-01T09:11:47.011Z,2.63
2022-09-01T09:14:45.908Z,3.03
2022-09-01T09:17:17.713Z,2.00
2022-09-01T09:19:45.745Z,2.47
2022-09-01T09:22:18.154Z,3.40
2022-09-01T09:24:52.367Z,2.27
2022-09-01T09:27:29.796Z,1.70
2022-09-01T09:30:08.265Z,2.30
2022-09-01T09:35:57.651Z,1.70
2022-09-01T09:38:30.285Z,3.20
2022-09-01T09:41:20.305Z,2.07
2022-09-01T09:44:00.167Z,2.93
2022-09-01T09:46:40.236Z,2.80
2022-09-01T09:49:44.265Z,2.10
2022-09-01T09:52:19.116Z,2.80
2022-09-01T09:55:06.444Z,3.40
2022-09-01T09:57:39.858Z,2.97
2022-09-01T10:00:30.063Z,3.00
2022-09-01T10:03:11.215Z,3.83
2022-09-01T10:05:45.310Z,4.30
2022-09-01T10:08:37.186Z,2.00
2022-09-01T10:11:06.693Z,3.00
2022-09-01T10:13:36.781Z,3.77
2022-09-01T10:16:23.298Z,3.67
2022-09-01T10:18:54.056Z,2.00
2022-09-01T10:21:34.127Z,2.03
2022-09-01T10:24:26.927Z,2.80
2022-09-01T10:27:23.832Z,2.90
2022-09-01T10:30:19.766Z,2.73
2022-09-01T10:33:07.999Z,2.70
2022-09-01T10:35:44.552Z,2.17
2022-09-01T10:38:20.668Z,3.43
2022-09-01T10:41:07.329Z,3.10
2022-09-01T10:43:38.347Z,4.03
2022-09-01T10:46:38.726Z,3.80
2022-09-01T10:49:46.374Z,5.30
2022-09-01T10:52:43.309Z,4.40
2022-09-01T10:55:25.245Z,2.80
2022-09-01T11:01:11.566Z,2.47
2022-09-01T11:03:56.196Z,3.73
2022-09-01T11:06:42.366Z,3.10
2022-09-01T11:09:28.146Z,3.23
2022-09-01T11:12:07.820Z,1.90
2022-09-01T11:14:49.889Z,2.03
2022-09-01T11:17:50.706Z,3.83
2022-09-01T11:20:31.308Z,2.30
2022-09-01T11:23:34.431Z,3.63
2022-09-01T11:26:23.117Z,3.40
2022-09-01T11:28:51.145Z,2.67
2022-09-01T11:31:23.137Z,2.97
2022-09-01T11:34:19.314Z,1.80
2022-09-01T11:36:59.618Z,2.83
2022-09-01T11:39:40.529Z,2.80
2022-09-01T11:42:39.687Z,3.00
2022-09-01T11:45:25.721Z,2.00
2022-09-01T11:47:57.310Z,3.73
2022-09-01T11:50:29.716Z,2.70
2022-09-01T11:53:06.280Z,3.30
2022-09-01T11:55:49.009Z,3.80
2022-09-01T11:58:29.026Z,3.73
2022-09-01T12:01:16.285Z,3.17
2022-09-01T12:03:44.937Z,3.13
2022-09-01T12:06:29.667Z,3.70
2022-09-01T12:09:02.995Z,4.10
2022-09-01T12:11:33.933Z,3.37
2022-09-01T12:14:11.172Z,2.83
2022-09-01T12:16:42.551Z,3.13
2022-09-01T12:19:25.045Z,2.90
2022-09-01T12:22:15.079Z,4.00
2022-09-01T12:24:49.785Z,3.50
2022-09-01T12:27:18.449Z,3.77
2022-09-01T12:29:46.905Z,2.53
2022-09-01T12:32:16.514Z,3.73
2022-09-01T12:34:49.075Z,2.67
2022-09-01T12:37:16.608Z,3.67
2022-09-01T12:39:51.688Z,2.50
2022-09-01T12:42:21.594Z,3.00
2022-09-01T12:44:56.137Z,2.80
2022-09-01T12:47:36.051Z,2.50
2022-09-01T12:50:12.887Z,3.30
2022-09-01T12:52:52.473Z,3.07
2022-09-01T12:55:47.641Z,2.90
2022-09-01T12:58:25.566Z,3.50
2022-09-01T13:01:05.688Z,3.73
2022-09-01T13:03:36.717Z,2.30
2022-09-01T13:06:05.115Z,3.10
2022-09-01T13:08:35.138Z,2.30
2022-09-01T13:11:09.135Z,3.50
2022-09-01T13:13:39.139Z,2.77
2022-09-01T13:16:13.637Z,4.30
2022-09-01T13:21:32.178Z,3.07
2022-09-01T13:24:00.819Z,3.90
2022-09-01T13:26:31.314Z,2.20
2022-09-01T13:29:00.709Z,3.00
2022-09-01T13:31:30.324Z,2.73
2022-09-01T13:34:23.336Z,2.43
2022-09-01T13:36:51.035Z,1.80
2022-09-01T13:39:21.143Z,2.20
2022-09-01T13:41:49.507Z,2.10
2022-09-01T13:44:18.647Z,2.87
2022-09-01T13:47:28.709Z,2.30
2022-09-01T13:49:44.033Z,2.73
2022-09-01T13:52:12.981Z,2.57
2022-09-01T13:54:42.031Z,3.07
2022-09-01T13:57:09.790Z,2.97
2022-09-01T13:59:38.842Z,2.90
2022-09-01T14:02:06.844Z,2.63
2022-09-01T14:04:33.850Z,2.97
2022-09-01T14:07:01.972Z,3.17
2022-09-01T14:09:30.202Z,3.13
2022-09-01T14:11:57.721Z,3.10
2022-09-01T14:14:24.741Z,2.20
2022-09-01T14:16:52.805Z,4.20
2022-09-01T14:19:19.762Z,3.40
2022-09-01T14:21:47.619Z,2.40
2022-09-01T14:24:19.898Z,2.70
2022-09-01T14:26:48.388Z,3.70
2022-09-01T14:29:15.961Z,3.37
2022-09-01T14:31:44.958Z,2.20
2022-09-01T14:34:15.485Z,2.30
2022-09-01T14:36:44.011Z,1.87
2022-09-01T14:39:13.962Z,2.10
2022-09-01T14:41:41.821Z,2.63
2022-09-01T14:44:08.784Z,4.93
2022-09-01T14:46:37.247Z,2.37
2022-09-01T14:49:04.923Z,2.20
2022-09-01T14:54:22.301Z,3.00
2022-09-01T14:59:37.909Z,2.50
2022-09-01T15:02:06.053Z,2.37
2022-09-01T15:04:33.999Z,2.17
2022-09-01T15:07:04.998Z,1.70
2022-09-01T15:09:33.282Z,1.97
2022-09-01T15:12:02.227Z,1.77
2022-09-01T15:14:29.844Z,2.40
2022-09-01T15:16:56.795Z,3.57
2022-09-01T15:19:24.896Z,1.50
2022-09-01T15:21:51.817Z,1.30
2022-09-01T15:24:19.970Z,2.03
2022-09-01T15:26:47.813Z,1.90
2022-09-01T15:29:16.228Z,3.07
2022-09-01T15:31:44.801Z,2.03
2022-09-01T15:34:13.978Z,1.60
2022-09-01T15:36:42.348Z,1.80
2022-09-01T15:39:11.021Z,2.90
2022-09-01T15:41:38.917Z,2.37
2022-09-01T15:44:08.143Z,1.70
2022-09-01T15:46:38.936Z,1.50
2022-09-01T15:49:10.079Z,2.50
2022-09-01T15:51:41.042Z,2.53
2022-09-01T15:54:17.464Z,2.30
2022-09-01T15:56:46.682Z,1.80
2022-09-01T15:59:15.123Z,1.60
2022-09-01T16:01:45.838Z,2.37
2022-09-01T16:04:19.817Z,2.50
2022-09-01T16:06:49.518Z,2.13
2022-09-01T16:09:20.833Z,1.70
2022-09-01T16:11:47.885Z,1.90
2022-09-01T16:14:16.037Z,2.23
2022-09-01T16:17:22.578Z,1.87
2022-09-01T16:19:56.561Z,1.83
2022-09-01T16:22:36.748Z,1.57
2022-09-01T16:25:22.684Z,1.80
2022-09-01T16:27:50.710Z,3.27
2022-09-01T16:30:27.751Z,2.33
2022-09-01T16:32:58.663Z,2.00
2022-09-01T16:35:46.042Z,1.90
2022-09-01T16:38:26.575Z,2.40
2022-09-01T16:41:53.154Z,1.80
2022-09-01T16:44:57.500Z,1.73
2022-09-01T16:47:48.562Z,1.60
2022-09-01T16:50:18.753Z,2.00
2022-09-01T16:53:14.061Z,1.70
2022-09-01T16:55:59.060Z,1.50
2022-09-01T16:58:59.531Z,1.90
2022-09-01T17:01:31.188Z,1.50
2022-09-01T17:04:26.094Z,1.50
2022-09-01T17:06:58.665Z,2.00
2022-09-01T17:09:38.862Z,2.33
2022-09-01T17:12:40.259Z,1.93
2022-09-01T17:15:12.702Z,1.40
2022-09-01T17:17:46.841Z,2.17
2022-09-01T17:20:16.500Z,1.30
2022-09-01T17:22:50.825Z,1.40
2022-09-01T17:25:41.283Z,1.27
2022-09-01T17:28:15.658Z,1.23
2022-09-01T17:31:00.911Z,2.03
2022-09-01T17:33:43.798Z,1.30
2022-09-01T17:36:10.816Z,1.40
2022-09-01T17:39:09.072Z,1.30
2022-09-01T17:41:40.275Z,1.30
2022-09-01T17:44:46.170Z,1.30
2022-09-01T17:47:37.010Z,1.30
2022-09-01T17:50:31.886Z,1.30
2022-09-01T17:53:15.579Z,1.30
2022-09-01T17:56:21.709Z,1.40
2022-09-01T17:59:01.532Z,1.40
2022-09-01T18:01:49.319Z,1.30
2022-09-01T18:04:44.396Z,1.30
2022-09-01T18:07:42.747Z,1.50
2022-09-01T18:10:17.576Z,1.10
2022-09-01T18:12:45.202Z,1.10
2022-09-01T18:15:22.434Z,1.00
2022-09-01T18:17:55.281Z,1.03
2022-09-01T18:20:28.863Z,1.13
2022-09-01T18:23:06.189Z,1.10
2022-09-01T18:25:47.377Z,1.00
2022-09-01T18:28:15.766Z,1.10
2022-09-01T18:31:20.227Z,1.20
2022-09-01T18:34:09.782Z,1.20
2022-09-01T18:37:10.523Z,1.10
2022-09-01T18:39:59.835Z,1.00
2022-09-01T18:42:53.968Z,1.00
2022-09-01T18:45:47.930Z,1.00
2022-09-01T18:51:14.107Z,1.00
2022-09-01T18:53:57.721Z,1.07
2022-09-01T18:56:55.005Z,1.00
2022-09-01T18:59:55.866Z,1.00
2022-09-01T19:03:00.597Z,1.00
2022-09-01T19:05:53.496Z,0.90
2022-09-01T19:08:25.113Z,0.90
2022-09-01T19:11:21.790Z,0.90
2022-09-01T19:14:19.091Z,0.80
2022-09-01T19:16:48.721Z,0.90
2022-09-01T19:19:24.496Z,0.73
2022-09-01T19:21:55.745Z,0.90
2022-09-01T19:24:33.458Z,0.90
2022-09-01T19:27:13.967Z,0.90
2022-09-01T19:29:52.583Z,0.80
2022-09-01T19:32:23.521Z,0.80
2022-09-01T19:35:02.806Z,1.00
2022-09-01T19:37:31.625Z,0.80
2022-09-01T19:39:59.032Z,0.70
2022-09-01T19:42:48.569Z,1.00
2022-09-01T19:45:25.788Z,0.90
2022-09-01T19:48:15.908Z,0.80
2022-09-01T19:50:42.975Z,0.80
2022-09-01T19:53:31.043Z,0.87
2022-09-01T19:56:15.800Z,0.80
2022-09-01T19:58:57.217Z,0.87
2022-09-01T20:01:51.836Z,0.90
2022-09-01T20:04:44.328Z,0.80
2022-09-01T20:07:51.033Z,0.80
2022-09-01T20:10:56.775Z,1.07
2022-09-01T20:13:36.693Z,1.00
2022-09-01T20:16:10.906Z,0.70
2022-09-01T20:18:53.468Z,1.03
2022-09-01T20:21:22.195Z,0.60
2022-09-01T20:24:13.888Z,0.70
2022-09-01T20:26:56.213Z,0.70
2022-09-01T20:29:40.436Z,0.70
2022-09-01T20:32:10.138Z,1.27
2022-09-01T20:34:52.883Z,0.60
2022-09-01T20:37:39.881Z,0.70
2022-09-01T20:40:45.176Z,0.70
2022-09-01T20:43:27.554Z,1.47
2022-09-01T20:45:55.162Z,0.70
2022-09-01T20:48:27.049Z,0.70
2022-09-01T20:50:58.672Z,0.60
2022-09-01T20:54:06.949Z,1.10
2022-09-01T20:56:51.448Z,0.70
2022-09-01T20:59:42.513Z,0.70
2022-09-01T21:02:25.440Z,0.70
2022-09-01T21:05:06.989Z,1.10
2022-09-01T21:08:11.186Z,0.70
2022-09-01T21:11:00.201Z,1.07
2022-09-01T21:13:50.182Z,1.30
2022-09-01T21:16:22.827Z,0.97
2022-09-01T21:19:20.694Z,0.70
2022-09-01T21:21:59.440Z,0.90
2022-09-01T21:24:26.969Z,0.70
2022-09-01T21:26:56.621Z,0.90
2022-09-01T21:29:31.211Z,0.77
2022-09-01T21:31:59.377Z,0.70
2022-09-01T21:34:27.369Z,0.80
2022-09-01T21:36:55.573Z,0.73
2022-09-01T21:39:24.355Z,0.70
2022-09-01T21:41:52.056Z,0.70
2022-09-01T21:44:21.226Z,0.70
2022-09-01T21:46:48.806Z,0.70
2022-09-01T21:49:17.457Z,0.60
2022-09-01T21:51:46.058Z,0.63
2022-09-01T21:54:14.193Z,0.60
2022-09-01T21:56:42.170Z,0.60
2022-09-01T21:59:16.994Z,0.60
2022-09-01T22:01:44.431Z,0.70
2022-09-01T22:04:12.220Z,0.60
2022-09-01T22:06:40.887Z,0.60
2022-09-01T22:09:21.154Z,0.60
2022-09-01T22:11:51.030Z,0.60
2022-09-01T22:14:19.678Z,0.67
2022-09-01T22:16:49.433Z,0.60
2022-09-01T22:19:17.276Z,0.60
2022-09-01T22:21:48.488Z,0.50
2022-09-01T22:24:19.177Z,0.60
2022-09-01T22:26:48.636Z,0.60
2022-09-01T22:29:17.397Z,0.60
2022-09-01T22:31:45.683Z,0.60
2022-09-01T22:34:14.395Z,0.53
2022-09-01T22:36:46.311Z,0.60
2022-09-01T22:39:15.589Z,0.50
2022-09-01T22:41:44.006Z,0.53
2022-09-01T22:44:11.515Z,0.60
2022-09-01T22:46:40.406Z,0.70
2022-09-01T22:49:09.050Z,0.60
2022-09-01T22:51:40.008Z,0.60
2022-09-01T22:54:09.553Z,0.57
2022-09-01T22:56:40.275Z,0.50
2022-09-01T22:59:11.675Z,0.50
2022-09-01T23:01:43.960Z,0.60
2022-09-01T23:04:13.264Z,0.60
2022-09-01T23:06:44.924Z,0.60
2022-09-01T23:09:12.538Z,0.50
2022-09-01T23:11:40.809Z,0.50
2022-09-01T23:14:09.175Z,0.57
2022-09-01T23:16:36.733Z,0.60
2022-09-01T23:19:06.053Z,0.50
2022-09-01T23:21:35.034Z,0.50
2022-09-01T23:24:03.581Z,0.60
2022-09-01T23:26:32.481Z,0.60
2022-09-01T23:29:00.093Z,0.60
2022-09-01T23:31:34.799Z,0.50
2022-09-01T23:34:04.077Z,0.50
2022-09-01T23:36:32.364Z,0.60
2022-09-01T23:39:01.803Z,0.70
2022-09-01T23:41:32.107Z,1.33
2022-09-01T23:44:03.479Z,0.50
2022-09-01T23:46:34.388Z,0.50
2022-09-01T23:49:02.825Z,0.50
2022-09-01T23:51:30.515Z,0.50
2022-09-01T23:53:59.299Z,0.50
2022-09-01T23:56:28.961Z,0.50
2022-09-01T23:58:58.160Z,0.50
